Time;durP1;ratioP1;P1;durP2;ratioP2;P2;SDS_P1;SDS_P2;PMS_P1;PMS_P2;Temp;Humidity;BMP_temperature;BMP_pressure;BME280_temperature;BME280_humidity;BME280_pressure;Samples;Min_cycle;Max_cycle;Signal;HPM_P1;HPM_P2
2022/03/15 00:02:17;;;;;;;19.10;12.85;;;8.30;99.90;;;;;;5074635;28;20017;-42
2022/03/15 00:04:43;;;;;;;19.45;11.88;;;8.30;99.90;;;;;;5071310;28;20028;-42
2022/03/15 00:07:13;;;;;;;19.67;11.90;;;8.20;99.90;;;;;;5077235;28;20033;-43
2022/03/15 00:09:38;;;;;;;24.40;12.55;;;8.20;99.90;;;;;;5069877;28;20438;-43
2022/03/15 00:12:08;;;;;;;19.23;11.98;;;8.10;99.90;;;;;;5078405;28;20497;-41
2022/03/15 00:14:37;;;;;;;20.65;12.25;;;8.10;99.90;;;;;;5069676;28;20028;-43
2022/03/15 00:17:04;;;;;;;19.35;12.35;;;8.10;99.90;;;;;;5078712;28;20102;-42
2022/03/15 00:19:29;;;;;;;18.45;11.10;;;8.10;99.90;;;;;;5068816;28;20472;-41
2022/03/15 00:21:55;;;;;;;21.08;11.60;;;8.00;99.90;;;;;;5078576;28;20035;-39
2022/03/15 00:24:22;;;;;;;14.68;10.77;;;8.00;99.90;;;;;;5067656;28;20028;-40
2022/03/15 00:26:48;;;;;;;18.30;11.75;;;8.00;99.90;;;;;;5078995;28;20458;-42
2022/03/15 00:29:17;;;;;;;16.70;11.48;;;7.90;99.90;;;;;;5068029;28;20440;-41
2022/03/15 00:31:44;;;;;;;17.23;11.25;;;8.00;99.90;;;;;;5079278;28;20035;-39
2022/03/15 00:34:10;;;;;;;16.80;10.13;;;7.90;99.90;;;;;;5067973;28;20025;-38
2022/03/15 00:36:37;;;;;;;18.83;11.02;;;7.90;99.90;;;;;;5078540;28;20040;-40
2022/03/15 00:39:03;;;;;;;16.38;10.80;;;7.90;99.90;;;;;;5068461;28;20111;-41
2022/03/15 00:41:29;;;;;;;17.23;10.68;;;7.90;99.90;;;;;;5076129;28;20039;-42
2022/03/15 00:43:55;;;;;;;18.25;10.82;;;7.90;99.90;;;;;;5071251;28;20025;-42
2022/03/15 00:46:20;;;;;;;19.17;10.30;;;7.90;99.90;;;;;;5072723;28;20149;-39
2022/03/15 00:48:46;;;;;;;18.20;9.32;;;7.90;99.90;;;;;;5073404;28;20115;-41
2022/03/15 00:51:11;;;;;;;14.18;9.90;;;7.90;99.90;;;;;;5070695;28;20027;-40
2022/03/15 00:53:37;;;;;;;18.70;9.73;;;7.90;99.90;;;;;;5075615;28;20040;-41
2022/03/15 00:56:02;;;;;;;16.10;9.48;;;8.00;99.90;;;;;;5068376;28;20064;-40
2022/03/15 00:58:28;;;;;;;16.90;9.52;;;8.00;99.90;;;;;;5078398;28;20089;-42
2022/03/15 01:00:54;;;;;;;15.13;9.90;;;8.00;99.90;;;;;;5067690;28;20017;-40
2022/03/15 01:03:19;;;;;;;14.23;9.75;;;8.00;99.90;;;;;;5078902;28;20052;-40
2022/03/15 01:05:45;;;;;;;20.95;11.10;;;8.00;99.90;;;;;;5067110;28;20103;-38
2022/03/15 01:08:11;;;;;;;21.38;10.60;;;8.00;99.90;;;;;;5079300;28;20031;-41
2022/03/15 01:10:36;;;;;;;18.38;11.00;;;8.10;99.90;;;;;;5067008;28;20107;-41
2022/03/15 01:13:02;;;;;;;18.45;11.10;;;8.10;99.90;;;;;;5079379;28;20519;-43
2022/03/15 01:15:29;;;;;;;19.00;11.48;;;8.10;99.90;;;;;;5066522;28;20024;-43
2022/03/15 01:17:54;;;;;;;18.52;11.23;;;8.10;99.90;;;;;;5076863;28;20036;-42
2022/03/15 01:20:20;;;;;;;19.63;12.10;;;8.10;99.90;;;;;;5069754;28;20089;-42
2022/03/15 01:22:46;;;;;;;18.75;11.27;;;8.10;99.90;;;;;;5072942;28;20028;-40
2022/03/15 01:25:12;;;;;;;23.33;12.57;;;8.10;99.90;;;;;;5072271;28;20036;-41
2022/03/15 01:27:37;;;;;;;18.85;12.48;;;8.10;99.90;;;;;;5070613;28;20472;-42
2022/03/15 01:30:05;;;;;;;19.30;12.45;;;8.10;99.90;;;;;;5074191;28;20025;-41
2022/03/15 01:32:31;;;;;;;21.10;12.30;;;8.10;99.90;;;;;;5069549;28;20403;-41
2022/03/15 01:34:56;;;;;;;24.25;13.13;;;8.10;99.90;;;;;;5075264;28;20027;-42
2022/03/15 01:37:22;;;;;;;20.17;12.80;;;8.20;99.90;;;;;;5067949;28;20047;-42
2022/03/15 01:39:47;;;;;;;18.73;11.68;;;8.10;99.90;;;;;;5077248;28;20021;-42
2022/03/15 01:42:13;;;;;;;20.52;12.68;;;8.20;99.90;;;;;;5067111;28;20170;-41
2022/03/15 01:44:48;;;;;;;20.48;13.55;;;8.20;99.90;;;;;;5078217;28;20013;-42
2022/03/15 01:47:13;;;;;;;22.27;14.05;;;8.20;99.90;;;;;;5066673;28;20029;-39
2022/03/15 01:49:39;;;;;;;21.85;14.10;;;8.30;99.90;;;;;;5077811;28;20590;-41
2022/03/15 01:52:05;;;;;;;24.88;15.52;;;8.30;99.90;;;;;;5066159;28;20052;-41
2022/03/15 01:54:32;;;;;;;25.13;15.07;;;8.30;99.90;;;;;;5079052;28;20027;-41
2022/03/15 01:56:57;;;;;;;22.25;14.32;;;8.30;99.90;;;;;;5065174;28;20135;-40
2022/03/15 01:59:23;;;;;;;25.98;15.60;;;8.30;99.90;;;;;;5076794;28;20153;-40
2022/03/15 02:01:48;;;;;;;23.75;15.57;;;8.40;99.90;;;;;;5066825;28;20531;-42
2022/03/15 02:04:15;;;;;;;21.50;14.98;;;8.40;99.90;;;;;;5073767;28;20089;-40
2022/03/15 02:06:50;;;;;;;25.73;14.52;;;8.40;99.90;;;;;;5069787;28;20032;-41
2022/03/15 02:09:16;;;;;;;21.52;15.05;;;8.40;99.90;;;;;;5072863;28;20381;-40
2022/03/15 02:11:46;;;;;;;24.10;15.35;;;8.40;99.90;;;;;;5070015;28;20575;-42
2022/03/15 02:14:11;;;;;;;21.10;14.20;;;8.40;99.90;;;;;;5070509;28;20111;-42
2022/03/15 02:16:37;;;;;;;19.80;13.45;;;8.40;99.90;;;;;;5073004;28;20132;-41
2022/03/15 02:19:05;;;;;;;21.88;14.27;;;8.30;99.90;;;;;;5067645;28;20074;-42
2022/03/15 02:21:32;;;;;;;22.13;14.18;;;8.40;99.90;;;;;;5075624;28;20730;-45
2022/03/15 02:23:57;;;;;;;20.25;14.23;;;8.30;99.90;;;;;;5066070;28;20048;-41
2022/03/15 02:26:23;;;;;;;22.08;14.32;;;8.40;99.90;;;;;;5077160;28;20067;-41
2022/03/15 02:28:49;;;;;;;20.70;15.07;;;8.40;99.90;;;;;;5066541;28;20522;-43
2022/03/15 02:31:15;;;;;;;21.17;14.00;;;8.30;99.90;;;;;;5076405;28;20192;-42
2022/03/15 02:33:41;;;;;;;21.98;14.70;;;8.30;99.90;;;;;;5066009;28;20035;-41
2022/03/15 02:36:06;;;;;;;22.20;15.07;;;8.30;99.90;;;;;;5077466;28;20020;-41
2022/03/15 02:38:32;;;;;;;20.02;14.00;;;8.30;99.90;;;;;;5064676;28;20036;-42
2022/03/15 02:40:58;;;;;;;24.98;14.15;;;8.30;99.90;;;;;;5077855;28;20012;-42
2022/03/15 02:43:23;;;;;;;21.50;15.50;;;8.30;99.90;;;;;;5065837;28;20048;-43
2022/03/15 02:45:49;;;;;;;21.35;15.57;;;8.30;99.90;;;;;;5074156;28;20157;-42
2022/03/15 02:48:14;;;;;;;22.70;14.77;;;8.30;99.90;;;;;;5068499;28;20146;-41
2022/03/15 02:50:39;;;;;;;19.55;13.93;;;8.30;99.90;;;;;;5072239;28;20026;-42
2022/03/15 02:53:05;;;;;;;23.27;14.50;;;8.30;99.90;;;;;;5069680;28;20067;-42
2022/03/15 02:55:33;;;;;;;23.20;14.80;;;8.30;99.90;;;;;;5070051;28;20028;-42
2022/03/15 02:57:59;;;;;;;20.48;15.55;;;8.30;99.90;;;;;;5072757;28;20044;-43
2022/03/15 03:00:27;;;;;;;23.15;13.88;;;8.30;99.90;;;;;;5066908;28;20024;-42
2022/03/15 03:02:53;;;;;;;18.77;14.05;;;8.30;99.90;;;;;;5075161;28;20033;-42
2022/03/15 03:05:19;;;;;;;23.38;14.70;;;8.30;99.90;;;;;;5066734;28;20028;-43
2022/03/15 03:07:45;;;;;;;21.85;14.93;;;8.30;99.90;;;;;;5075193;28;20494;-42
2022/03/15 03:10:12;;;;;;;20.80;14.30;;;8.30;99.90;;;;;;5066834;28;20039;-40
2022/03/15 03:12:41;;;;;;;22.95;13.90;;;8.30;99.90;;;;;;5078858;28;20031;-43
2022/03/15 03:15:11;;;;;;;19.42;13.60;;;8.30;99.90;;;;;;5068967;28;20074;-42
2022/03/15 03:17:40;;;;;;;22.02;13.52;;;8.30;99.90;;;;;;5082249;28;20133;-42
2022/03/15 03:20:11;;;;;;;19.73;13.75;;;8.30;99.90;;;;;;5068971;28;20021;-40
2022/03/15 03:22:37;;;;;;;22.60;13.05;;;8.20;99.90;;;;;;5081642;28;20144;-41
2022/03/15 03:25:06;;;;;;;20.48;13.85;;;8.20;99.90;;;;;;5069234;28;20095;-41
2022/03/15 03:27:33;;;;;;;20.35;14.27;;;8.20;99.90;;;;;;5080454;28;20631;-41
2022/03/15 03:29:59;;;;;;;21.02;15.10;;;8.20;99.90;;;;;;5069365;28;20533;-40
2022/03/15 03:32:25;;;;;;;22.30;14.77;;;8.20;99.90;;;;;;5079294;28;20024;-42
2022/03/15 03:34:55;;;;;;;22.33;14.82;;;8.20;99.90;;;;;;5069870;28;20465;-41
2022/03/15 03:37:21;;;;;;;20.90;14.00;;;8.20;99.90;;;;;;5077047;28;20047;-43
2022/03/15 03:39:47;;;;;;;23.30;15.23;;;8.20;99.90;;;;;;5072855;28;20036;-42
2022/03/15 03:42:13;;;;;;;19.45;14.85;;;8.20;99.90;;;;;;5073978;28;20608;-43
2022/03/15 03:44:41;;;;;;;17.35;13.43;;;8.10;99.90;;;;;;5075202;28;20056;-43
2022/03/15 03:47:06;;;;;;;17.98;13.75;;;8.20;99.90;;;;;;5071925;28;20440;-42
2022/03/15 03:49:32;;;;;;;19.90;13.93;;;8.10;99.90;;;;;;5070771;28;20123;-41
2022/03/15 03:51:58;;;;;;;18.90;13.18;;;8.10;99.90;;;;;;5069845;28;20797;-42
2022/03/15 03:54:24;;;;;;;18.38;12.68;;;8.10;99.90;;;;;;5079922;28;20521;-41
2022/03/15 03:56:50;;;;;;;23.40;16.58;;;8.10;99.90;;;;;;5067999;28;20561;-42
2022/03/15 03:59:17;;;;;;;23.83;18.20;;;8.10;99.90;;;;;;5080212;28;20099;-41
2022/03/15 04:01:43;;;;;;;23.40;17.92;;;8.10;99.90;;;;;;5067504;28;20483;-41
2022/03/15 04:04:09;;;;;;;23.20;17.00;;;8.10;99.90;;;;;;5080404;28;20105;-43
2022/03/15 04:06:36;;;;;;;23.90;16.80;;;8.10;99.90;;;;;;5068555;28;20033;-42
2022/03/15 04:09:04;;;;;;;23.02;16.75;;;8.10;99.90;;;;;;5080547;28;20035;-41
2022/03/15 04:11:31;;;;;;;21.63;16.42;;;8.10;99.90;;;;;;5067909;28;20029;-42
2022/03/15 04:13:59;;;;;;;21.83;15.88;;;8.00;99.90;;;;;;5079638;28;20024;-41
2022/03/15 04:16:24;;;;;;;21.98;15.77;;;8.00;99.90;;;;;;5068486;28;20036;-41
2022/03/15 04:18:50;;;;;;;24.25;16.50;;;8.00;99.90;;;;;;5077106;28;20028;-41
2022/03/15 04:21:16;;;;;;;21.23;15.70;;;8.00;99.90;;;;;;5071855;28;20078;-42
2022/03/15 04:23:41;;;;;;;21.52;16.02;;;8.00;99.90;;;;;;5072468;28;20022;-41
2022/03/15 04:26:07;;;;;;;20.08;15.18;;;8.00;99.90;;;;;;5074238;28;20031;-40
2022/03/15 04:28:32;;;;;;;21.05;15.02;;;8.00;99.90;;;;;;5071677;28;20042;-42
2022/03/15 04:30:58;;;;;;;20.90;14.88;;;8.00;99.90;;;;;;5076222;28;20020;-42
2022/03/15 04:33:23;;;;;;;22.45;14.73;;;8.00;99.90;;;;;;5069267;28;20036;-41
2022/03/15 04:35:49;;;;;;;21.48;15.10;;;7.90;99.90;;;;;;5078561;28;20244;-42
2022/03/15 04:38:14;;;;;;;18.67;13.38;;;7.90;99.90;;;;;;5068311;28;20032;-43
2022/03/15 04:40:40;;;;;;;22.33;14.48;;;7.90;99.90;;;;;;5078850;28;20399;-42
2022/03/15 04:43:06;;;;;;;18.88;14.25;;;8.00;99.90;;;;;;5068176;28;20032;-41
2022/03/15 04:45:32;;;;;;;20.02;15.18;;;7.90;99.90;;;;;;5079160;28;20102;-41
2022/03/15 04:47:58;;;;;;;17.98;14.40;;;7.90;99.90;;;;;;5071060;28;20036;-41
2022/03/15 04:50:24;;;;;;;17.85;14.40;;;7.90;99.90;;;;;;5074981;28;20028;-41
2022/03/15 04:52:49;;;;;;;20.85;14.00;;;8.00;99.90;;;;;;5086424;28;20042;-41
2022/03/15 04:55:15;;;;;;;19.42;14.25;;;7.90;99.90;;;;;;5076716;28;20086;-40
2022/03/15 04:57:42;;;;;;;23.58;14.70;;;7.90;99.90;;;;;;5085366;28;20570;-42
2022/03/15 05:00:09;;;;;;;21.90;15.60;;;7.90;99.90;;;;;;5077921;28;20463;-38
2022/03/15 05:02:43;;;;;;;20.75;15.35;;;7.90;99.90;;;;;;5083455;28;20475;-38
2022/03/15 05:05:08;;;;;;;22.00;14.50;;;7.90;99.90;;;;;;5080502;28;20111;-40
2022/03/15 05:07:34;;;;;;;18.05;13.25;;;7.90;99.90;;;;;;5081266;28;20131;-41
2022/03/15 05:12:45;;;;;;;17.88;14.07;;;7.90;99.90;;;;;;5080964;28;20490;-41
2022/03/15 05:15:11;;;;;;;20.60;14.15;;;7.80;99.90;;;;;;5082575;28;20032;-41
2022/03/15 05:17:36;;;;;;;17.25;12.63;;;7.80;99.90;;;;;;5078575;28;20039;-40
2022/03/15 05:20:05;;;;;;;18.52;13.10;;;7.80;99.90;;;;;;5084540;28;20027;-41
2022/03/15 05:22:33;;;;;;;21.55;14.38;;;7.80;99.90;;;;;;5076773;28;20031;-42
2022/03/15 05:24:59;;;;;;;17.90;13.63;;;7.80;99.90;;;;;;5085098;28;20593;-38
2022/03/15 05:27:26;;;;;;;19.02;13.23;;;7.80;99.90;;;;;;5075192;28;20034;-42
2022/03/15 05:29:52;;;;;;;16.40;12.00;;;7.80;99.90;;;;;;5085042;28;20024;-41
2022/03/15 05:32:18;;;;;;;17.13;12.45;;;7.80;99.90;;;;;;5078794;28;20028;-42
2022/03/15 05:34:44;;;;;;;16.70;12.00;;;7.80;99.90;;;;;;5066079;28;20491;-42
2022/03/15 05:37:09;;;;;;;17.48;12.27;;;7.80;99.90;;;;;;5079072;28;20032;-40
2022/03/15 05:39:35;;;;;;;15.60;12.35;;;7.80;99.90;;;;;;5066205;28;20032;-43
2022/03/15 05:42:01;;;;;;;17.90;13.13;;;7.80;99.90;;;;;;5078184;28;20019;-40
2022/03/15 05:44:27;;;;;;;18.00;13.40;;;7.80;99.90;;;;;;5066790;28;20034;-40
2022/03/15 05:46:53;;;;;;;17.20;12.45;;;7.80;99.90;;;;;;5076458;28;20454;-42
2022/03/15 05:49:19;;;;;;;17.85;12.60;;;7.80;99.90;;;;;;5068162;28;20054;-41
2022/03/15 05:51:45;;;;;;;16.45;12.75;;;7.80;99.90;;;;;;5073057;28;20134;-40
2022/03/15 05:54:11;;;;;;;19.02;13.23;;;7.80;99.90;;;;;;5071793;28;20031;-42
2022/03/15 05:56:38;;;;;;;21.02;13.77;;;7.80;99.90;;;;;;5069409;28;20131;-42
2022/03/15 05:59:03;;;;;;;18.73;13.32;;;7.80;99.90;;;;;;5073536;28;20032;-41
2022/03/15 06:01:29;;;;;;;18.73;13.10;;;7.80;99.90;;;;;;5068612;28;20578;-41
2022/03/15 06:03:54;;;;;;;19.58;13.32;;;7.80;99.90;;;;;;5075237;28;20080;-40
2022/03/15 06:06:21;;;;;;;23.20;14.18;;;7.80;99.90;;;;;;5067455;28;20028;-41
2022/03/15 06:08:48;;;;;;;23.90;13.73;;;7.80;99.90;;;;;;5076741;28;20393;-42
2022/03/15 06:11:15;;;;;;;20.08;13.57;;;7.80;99.90;;;;;;5067126;28;20036;-41
2022/03/15 06:13:44;;;;;;;20.23;13.48;;;7.80;99.90;;;;;;5076816;28;20037;-43
2022/03/15 06:16:09;;;;;;;19.75;13.48;;;7.90;99.90;;;;;;5065082;28;20383;-40
2022/03/15 06:18:35;;;;;;;16.95;11.90;;;7.90;99.90;;;;;;5078520;28;20016;-39
2022/03/15 06:21:00;;;;;;;19.20;12.55;;;7.90;99.90;;;;;;5065557;28;20404;-40
2022/03/15 06:23:26;;;;;;;16.13;12.10;;;7.90;99.90;;;;;;5078453;28;20017;-42
2022/03/15 06:25:52;;;;;;;17.45;12.77;;;7.90;99.90;;;;;;5065719;28;20574;-41
2022/03/15 06:28:17;;;;;;;17.05;12.43;;;7.90;99.90;;;;;;5076186;28;20031;-41
2022/03/15 06:30:44;;;;;;;16.88;11.82;;;7.90;99.90;;;;;;5066957;28;20036;-41
2022/03/15 06:33:10;;;;;;;15.70;11.80;;;7.90;99.90;;;;;;5073741;28;20020;-41
2022/03/15 06:35:36;;;;;;;16.40;12.02;;;7.90;99.90;;;;;;5069831;28;20021;-41
2022/03/15 06:38:01;;;;;;;17.92;13.05;;;7.90;99.90;;;;;;5070218;28;20035;-42
2022/03/15 06:40:29;;;;;;;20.98;13.80;;;7.90;99.90;;;;;;5072565;28;20032;-40
2022/03/15 06:42:55;;;;;;;23.80;13.85;;;7.90;99.90;;;;;;5067867;28;20024;-42
2022/03/15 06:45:22;;;;;;;19.17;13.13;;;8.00;99.90;;;;;;5074800;28;20028;-41
2022/03/15 06:47:47;;;;;;;20.73;14.40;;;8.00;99.90;;;;;;5065675;28;20029;-41
2022/03/15 06:50:13;;;;;;;21.35;13.68;;;8.00;99.90;;;;;;5074910;28;20089;-44
2022/03/15 06:52:41;;;;;;;18.05;13.15;;;8.00;99.90;;;;;;5081456;28;20020;-44
2022/03/15 06:55:08;;;;;;;17.00;13.23;;;8.00;99.90;;;;;;5096350;28;20024;-44
2022/03/15 06:57:34;;;;;;;19.48;13.95;;;8.10;99.90;;;;;;5081650;28;20545;-41
2022/03/15 07:00:11;;;;;;;21.52;14.73;;;8.10;99.90;;;;;;5075036;28;20471;-42
2022/03/15 07:02:40;;;;;;;19.23;13.70;;;8.10;99.90;;;;;;5064473;28;20429;-41
2022/03/15 07:05:06;;;;;;;20.58;14.45;;;8.10;99.90;;;;;;5076277;28;20028;-40
2022/03/15 07:07:32;;;;;;;20.70;14.63;;;8.10;99.90;;;;;;5063824;28;20033;-41
2022/03/15 07:09:57;;;;;;;16.38;13.18;;;8.10;99.90;;;;;;5076818;28;20027;-41
2022/03/15 07:12:24;;;;;;;18.35;13.80;;;8.10;99.90;;;;;;5064423;28;20620;-41
2022/03/15 07:14:50;;;;;;;19.77;15.02;;;8.10;99.90;;;;;;5074614;28;20899;-42
2022/03/15 07:17:16;;;;;;;19.98;14.07;;;8.10;99.90;;;;;;5084532;28;20102;-42
2022/03/15 07:19:42;;;;;;;18.02;13.18;;;8.20;99.90;;;;;;5087930;28;20030;-42
2022/03/15 07:22:08;;;;;;;18.23;13.05;;;8.20;99.90;;;;;;5069577;28;20028;-43
2022/03/15 07:24:35;;;;;;;17.70;12.80;;;8.20;99.90;;;;;;5069575;28;20020;-42
2022/03/15 07:27:01;;;;;;;18.50;13.05;;;8.20;99.90;;;;;;5070832;28;20384;-42
2022/03/15 07:29:26;;;;;;;19.25;13.30;;;8.30;99.90;;;;;;5066812;28;20036;-41
2022/03/15 07:31:53;;;;;;;19.20;13.57;;;8.30;99.90;;;;;;5073695;28;20082;-42
2022/03/15 07:34:18;;;;;;;19.25;13.95;;;8.30;99.90;;;;;;5064817;28;20434;-41
2022/03/15 07:36:44;;;;;;;19.33;13.52;;;8.30;99.90;;;;;;5075595;28;20033;-39
2022/03/15 07:39:09;;;;;;;18.05;14.57;;;8.40;99.90;;;;;;5066501;28;20794;-44
2022/03/15 07:41:39;;;;;;;17.75;13.68;;;8.40;99.90;;;;;;5069790;28;20059;-42
2022/03/15 07:44:08;;;;;;;18.52;14.07;;;8.40;99.90;;;;;;5084969;28;20043;-42
2022/03/15 07:46:36;;;;;;;20.13;13.38;;;8.50;99.90;;;;;;5080134;28;20050;-42
2022/03/15 07:49:02;;;;;;;16.17;12.43;;;8.50;99.90;;;;;;5064726;28;20017;-42
2022/03/15 07:51:28;;;;;;;16.10;12.35;;;8.50;99.90;;;;;;5076979;28;20035;-41
2022/03/15 07:53:54;;;;;;;14.50;10.70;;;8.50;99.90;;;;;;5064123;28;20387;-42
2022/03/15 07:56:19;;;;;;;20.45;12.35;;;8.60;99.90;;;;;;5080084;28;20059;-42
2022/03/15 07:58:45;;;;;;;20.27;13.25;;;8.60;99.90;;;;;;5097425;28;20024;-42
2022/03/15 08:01:10;;;;;;;15.88;13.60;;;8.60;99.90;;;;;;5091811;28;20684;-41
2022/03/15 08:03:36;;;;;;;17.15;12.55;;;8.60;99.90;;;;;;5071335;28;20025;-40
2022/03/15 08:06:01;;;;;;;16.10;12.55;;;8.60;99.90;;;;;;5073640;28;20055;-41
2022/03/15 08:08:27;;;;;;;18.23;12.63;;;8.60;99.90;;;;;;5075275;28;20812;-41
2022/03/15 08:10:52;;;;;;;17.88;14.38;;;8.70;99.90;;;;;;5070924;28;20033;-42
2022/03/15 08:13:18;;;;;;;15.48;12.27;;;8.70;99.90;;;;;;5077817;28;20024;-43
2022/03/15 08:15:44;;;;;;;17.70;13.20;;;8.80;99.90;;;;;;5068547;28;20507;-42
2022/03/15 08:18:09;;;;;;;17.45;12.80;;;8.80;99.90;;;;;;5079303;28;20053;-44
2022/03/15 08:20:38;;;;;;;18.35;12.40;;;8.80;99.90;;;;;;5069201;28;20031;-41
2022/03/15 08:23:04;;;;;;;14.00;11.27;;;8.90;99.90;;;;;;5078244;28;20036;-41
2022/03/15 08:25:29;;;;;;;14.80;12.02;;;8.90;99.90;;;;;;5068370;28;20420;-43
2022/03/15 08:27:56;;;;;;;20.45;12.20;;;8.90;99.90;;;;;;5074886;28;20027;-42
2022/03/15 08:30:22;;;;;;;17.27;12.63;;;9.00;99.90;;;;;;5087125;28;20044;-41
2022/03/15 08:32:48;;;;;;;14.27;9.85;;;9.10;99.90;;;;;;5075576;28;20381;-41
2022/03/15 08:35:13;;;;;;;18.15;11.20;;;9.10;99.90;;;;;;5088420;28;20609;-42
2022/03/15 08:37:39;;;;;;;13.13;10.35;;;9.10;99.90;;;;;;5075874;28;20798;-44
2022/03/15 08:40:08;;;;;;;15.43;10.70;;;9.10;99.90;;;;;;5086285;28;20181;-42
2022/03/15 08:42:33;;;;;;;13.10;8.82;;;9.10;99.90;;;;;;5078768;28;20029;-38
2022/03/15 08:44:59;;;;;;;12.90;10.18;;;9.20;99.90;;;;;;5083250;28;20119;-41
2022/03/15 08:47:25;;;;;;;11.15;8.90;;;9.30;99.90;;;;;;5081548;28;20403;-41
2022/03/15 08:49:50;;;;;;;13.07;8.93;;;9.30;99.90;;;;;;5081374;28;20032;-40
2022/03/15 08:52:17;;;;;;;13.10;8.85;;;9.40;99.90;;;;;;5083550;28;20021;-40
2022/03/15 08:54:42;;;;;;;13.27;9.25;;;9.40;99.90;;;;;;5078059;28;20028;-40
2022/03/15 08:57:08;;;;;;;13.70;8.82;;;9.40;99.90;;;;;;5086280;28;20048;-41
2022/03/15 08:59:34;;;;;;;10.55;7.65;;;9.40;99.90;;;;;;5075404;28;20035;-40
2022/03/15 09:02:01;;;;;;;10.30;7.55;;;9.50;99.90;;;;;;5086328;28;20032;-43
2022/03/15 09:04:26;;;;;;;10.18;8.18;;;9.50;99.90;;;;;;5076496;28;20054;-41
2022/03/15 09:06:52;;;;;;;12.52;8.35;;;9.60;99.90;;;;;;5086296;28;20039;-43
2022/03/15 09:09:24;;;;;;;13.15;8.38;;;9.60;99.90;;;;;;5074349;28;20136;-40
2022/03/15 09:11:50;;;;;;;12.10;8.52;;;9.60;99.90;;;;;;5086731;28;20035;-42
2022/03/15 09:14:15;;;;;;;12.88;8.10;;;9.70;99.90;;;;;;5074228;28;20031;-43
2022/03/15 09:16:41;;;;;;;11.57;7.72;;;9.80;99.90;;;;;;5086795;28;20050;-42
2022/03/15 09:19:08;;;;;;;10.02;7.60;;;9.80;99.90;;;;;;5074882;28;20032;-41
2022/03/15 09:21:34;;;;;;;11.23;7.43;;;9.90;99.90;;;;;;5086161;28;20036;-43
2022/03/15 09:23:59;;;;;;;10.13;7.57;;;9.90;99.90;;;;;;5077570;28;20023;-42
2022/03/15 09:26:25;;;;;;;14.57;7.72;;;10.00;99.90;;;;;;5083203;28;20082;-42
2022/03/15 09:28:54;;;;;;;11.02;7.80;;;10.00;99.90;;;;;;5080324;28;20020;-38
2022/03/15 09:31:22;;;;;;;9.57;6.88;;;10.10;99.90;;;;;;5081319;28;20024;-38
2022/03/15 09:33:48;;;;;;;9.77;6.80;;;10.10;99.90;;;;;;5080706;28;20024;-40
2022/03/15 09:36:15;;;;;;;8.77;6.82;;;10.10;99.90;;;;;;5077222;28;20016;-39
2022/03/15 09:38:41;;;;;;;12.30;7.20;;;10.20;99.90;;;;;;5084309;28;20032;-40
2022/03/15 09:41:07;;;;;;;9.45;6.90;;;10.20;99.90;;;;;;5076133;28;20535;-41
2022/03/15 09:43:36;;;;;;;10.55;6.47;;;10.30;99.90;;;;;;5084806;28;20032;-41
2022/03/15 09:46:06;;;;;;;11.85;7.80;;;10.30;99.90;;;;;;5075294;28;20058;-41
2022/03/15 09:48:32;;;;;;;11.55;8.15;;;10.30;99.90;;;;;;5078876;28;20666;-40
2022/03/15 09:50:58;;;;;;;10.13;7.72;;;10.40;99.90;;;;;;5077671;28;20384;-42
2022/03/15 09:53:24;;;;;;;12.65;7.90;;;10.40;99.90;;;;;;5066494;28;20549;-40
2022/03/15 09:55:49;;;;;;;10.07;7.75;;;10.40;99.90;;;;;;5077094;28;20071;-41
2022/03/15 09:58:19;;;;;;;12.30;7.00;;;10.50;99.90;;;;;;5067066;28;20036;-42
2022/03/15 10:00:50;;;;;;;11.18;7.60;;;10.50;99.90;;;;;;5078508;28;20052;-41
2022/03/15 10:03:16;;;;;;;11.68;7.95;;;10.60;99.90;;;;;;5065729;28;20411;-41
2022/03/15 10:05:42;;;;;;;10.35;7.80;;;10.60;99.90;;;;;;5077524;28;20016;-41
2022/03/15 10:08:08;;;;;;;12.65;7.80;;;10.70;99.90;;;;;;5066115;28;20029;-42
2022/03/15 10:10:34;;;;;;;9.32;6.75;;;10.70;99.90;;;;;;5074894;28;20020;-40
2022/03/15 10:12:59;;;;;;;12.75;8.00;;;10.70;99.90;;;;;;5069211;28;20025;-42
2022/03/15 10:15:25;;;;;;;12.20;7.45;;;10.80;99.90;;;;;;5072491;28;20073;-41
2022/03/15 10:17:57;;;;;;;10.73;7.20;;;10.80;99.90;;;;;;5071778;28;20471;-44
2022/03/15 10:20:31;;;;;;;10.77;7.40;;;10.90;99.90;;;;;;5070348;28;20020;-44
2022/03/15 10:23:01;;;;;;;12.52;6.28;;;10.90;99.90;;;;;;5070900;28;20039;-40
2022/03/15 10:25:29;;;;;;;9.88;6.93;;;10.90;99.90;;;;;;5069844;28;20024;-43
2022/03/15 10:27:58;;;;;;;10.25;7.32;;;11.00;99.90;;;;;;5073592;28;20032;-40
2022/03/15 10:30:26;;;;;;;13.05;7.93;;;11.00;99.90;;;;;;5066834;28;20060;-42
2022/03/15 10:32:53;;;;;;;11.10;7.75;;;11.00;99.90;;;;;;5074682;28;20523;-41
2022/03/15 10:35:24;;;;;;;9.32;8.10;;;11.10;99.90;;;;;;5067333;28;20032;-42
2022/03/15 10:37:52;;;;;;;12.07;6.85;;;11.10;99.90;;;;;;5075994;28;20115;-41
2022/03/15 10:40:18;;;;;;;8.90;6.80;;;11.20;99.90;;;;;;5066948;28;20032;-40
2022/03/15 10:42:46;;;;;;;10.05;6.85;;;11.20;99.90;;;;;;5076046;28;20021;-41
2022/03/15 10:45:22;;;;;;;12.57;6.90;;;11.30;99.90;;;;;;5065022;28;20031;-42
2022/03/15 10:47:50;;;;;;;11.88;7.28;;;11.30;99.90;;;;;;5073998;28;20012;-42
2022/03/15 10:50:16;;;;;;;11.45;6.90;;;11.40;99.90;;;;;;5084881;28;20383;-40
2022/03/15 10:52:44;;;;;;;12.05;6.88;;;11.40;99.90;;;;;;5072547;28;20016;-41
2022/03/15 10:55:13;;;;;;;9.98;6.57;;;11.50;99.90;;;;;;5085744;28;20028;-39
2022/03/15 10:57:49;;;;;;;8.90;7.03;;;11.50;99.90;;;;;;5071320;28;20025;-40
2022/03/15 11:00:16;;;;;;;8.40;6.35;;;11.50;99.90;;;;;;5085880;28;20080;-41
2022/03/15 11:02:44;;;;;;;8.23;6.05;;;11.60;99.90;;;;;;5073738;28;20028;-40
2022/03/15 11:05:10;;;;;;;9.75;6.22;;;11.60;99.90;;;;;;5063983;28;20032;-41
2022/03/15 11:07:40;;;;;;;11.10;6.50;;;11.70;99.90;;;;;;5075535;28;20032;-40
2022/03/15 11:10:14;;;;;;;7.72;6.57;;;11.70;99.90;;;;;;5066880;28;20060;-42
2022/03/15 11:12:57;;;;;;;7.80;6.45;;;11.70;99.90;;;;;;5073624;28;20059;-43
2022/03/15 11:15:30;;;;;;;8.15;6.30;;;11.70;99.90;;;;;;5065876;28;20028;-41
2022/03/15 11:18:01;;;;;;;12.80;6.88;;;11.80;99.90;;;;;;5072920;28;20044;-42
2022/03/15 11:20:29;;;;;;;9.25;5.75;;;11.80;99.90;;;;;;5064042;28;20052;-41
2022/03/15 11:22:59;;;;;;;8.35;5.57;;;11.80;99.90;;;;;;5071201;28;20075;-38
2022/03/15 11:25:36;;;;;;;7.55;5.75;;;11.80;99.90;;;;;;5066194;28;20404;-39
2022/03/15 11:28:06;;;;;;;7.93;5.53;;;11.90;99.90;;;;;;5071224;28;20349;-41
2022/03/15 11:30:32;;;;;;;6.80;5.00;;;11.90;99.90;;;;;;5066465;28;20492;-41
2022/03/15 11:33:01;;;;;;;6.97;5.10;;;11.90;99.90;;;;;;5070248;28;20016;-40
2022/03/15 11:35:29;;;;;;;6.25;4.70;;;11.90;99.90;;;;;;5072948;28;20107;-43
2022/03/15 11:37:55;;;;;;;9.23;5.22;;;11.90;99.90;;;;;;5071515;28;20115;-42
2022/03/15 11:40:22;;;;;;;7.43;4.38;;;12.00;99.90;;;;;;5074464;28;20020;-41
2022/03/15 11:42:57;;;;;;;5.15;4.40;;;12.10;99.90;;;;;;5068457;28;20051;-40
2022/03/15 11:45:43;;;;;;;7.60;5.03;;;12.10;99.90;;;;;;5076305;28;20025;-40
2022/03/15 11:48:41;;;;;;;5.82;4.32;;;12.10;99.90;;;;;;5070656;28;20034;-41
2022/03/15 11:51:16;;;;;;;7.30;5.18;;;12.20;99.90;;;;;;5071892;28;20032;-40
2022/03/15 11:54:11;;;;;;;6.88;4.22;;;12.20;99.90;;;;;;5072179;28;20440;-40
2022/03/15 11:56:51;;;;;;;8.50;4.95;;;12.30;99.90;;;;;;5067852;28;20555;-41
2022/03/15 11:59:16;;;;;;;5.93;4.72;;;12.40;99.90;;;;;;5076945;28;20055;-39
2022/03/15 12:01:46;;;;;;;7.43;4.57;;;12.40;99.90;;;;;;5098989;28;20128;-39
2022/03/15 12:04:12;;;;;;;6.95;5.00;;;12.40;99.90;;;;;;5098035;28;20028;-41
2022/03/15 12:06:49;;;;;;;7.70;4.70;;;12.50;99.90;;;;;;5096223;28;20631;-38
2022/03/15 12:09:21;;;;;;;7.90;4.97;;;12.50;99.90;;;;;;5092586;28;20028;-41
2022/03/15 12:11:47;;;;;;;8.98;5.38;;;12.50;99.90;;;;;;5072668;28;20032;-43
2022/03/15 12:14:17;;;;;;;12.63;6.15;;;12.50;99.90;;;;;;5073544;28;20028;-41
2022/03/15 12:16:48;;;;;;;8.10;5.55;;;12.50;99.90;;;;;;5073902;28;20028;-43
2022/03/15 12:19:35;;;;;;;8.52;5.05;;;12.50;99.90;;;;;;5072502;28;20036;-40
2022/03/15 12:22:09;;;;;;;7.93;5.13;;;12.50;99.90;;;;;;5072392;28;20899;-42
2022/03/15 12:24:37;;;;;;;7.88;5.60;;;12.50;99.90;;;;;;5073145;28;20059;-39
2022/03/15 12:27:14;;;;;;;9.80;5.75;;;12.50;99.90;;;;;;5074668;28;20036;-42
2022/03/15 12:29:50;;;;;;;10.13;6.00;;;12.50;99.90;;;;;;5071927;28;20063;-43
2022/03/15 12:32:19;;;;;;;7.22;5.10;;;12.50;99.90;;;;;;5074903;28;20138;-43
2022/03/15 12:34:49;;;;;;;7.03;4.85;;;12.50;99.90;;;;;;5070724;28;20668;-41
2022/03/15 12:37:15;;;;;;;9.85;5.40;;;12.50;99.90;;;;;;5075286;28;20040;-42
2022/03/15 12:39:52;;;;;;;7.88;5.20;;;12.50;99.90;;;;;;5069602;28;20066;-41
2022/03/15 12:42:21;;;;;;;7.28;4.80;;;12.50;99.90;;;;;;5076796;28;20559;-43